createdAt,value
2023-01-18T00:04:42.671Z,8.9
2023-01-18T00:09:45.551Z,8.8
2023-01-18T00:14:48.139Z,8.8
2023-01-18T00:19:50.848Z,8.7
2023-01-18T00:24:53.155Z,8.6
2023-01-18T00:29:55.314Z,8.6
2023-01-18T00:34:57.479Z,8.6
2023-01-18T00:39:59.610Z,8.6
2023-01-18T00:45:01.991Z,8.5
2023-01-18T00:50:04.005Z,8.6
2023-01-18T00:55:06.548Z,8.6
2023-01-18T01:00:08.798Z,8.6
2023-01-18T01:05:10.993Z,8.6
2023-01-18T01:10:13.236Z,8.6
2023-01-18T01:15:15.314Z,8.6
2023-01-18T01:20:17.379Z,8.5
2023-01-18T01:25:19.567Z,8.4
2023-01-18T01:30:21.652Z,8.4
2023-01-18T01:35:23.912Z,8.3
2023-01-18T01:40:26.053Z,8.3
2023-01-18T01:45:28.316Z,8.2
2023-01-18T01:50:30.380Z,8.1
2023-01-18T01:55:32.744Z,8.1
2023-01-18T02:00:34.996Z,8.1
2023-01-18T02:05:37.625Z,8
2023-01-18T02:10:39.875Z,8
2023-01-18T02:15:42.446Z,8
2023-01-18T02:25:45.186Z,8
2023-01-18T02:30:47.551Z,7.9
2023-01-18T02:35:49.868Z,7.9
2023-01-18T02:40:51.847Z,7.9
2023-01-18T02:45:54.514Z,7.9
2023-01-18T02:50:56.764Z,7.9
2023-01-18T02:55:58.818Z,7.9
2023-01-18T03:01:01.763Z,7.9
2023-01-18T03:06:04.142Z,7.8
2023-01-18T03:11:06.250Z,7.8
2023-01-18T03:16:08.891Z,7.6
2023-01-18T03:21:11.462Z,7.6
2023-01-18T03:26:13.601Z,7.6
2023-01-18T03:31:16.441Z,7.6
2023-01-18T03:36:18.862Z,7.6
2023-01-18T03:41:20.975Z,7.6
2023-01-18T03:46:23.731Z,7.7
2023-01-18T03:51:25.700Z,7.7
2023-01-18T03:56:27.676Z,7.8
2023-01-18T04:01:30.259Z,7.8
2023-01-18T04:06:32.738Z,7.7
2023-01-18T04:11:34.807Z,7.8
2023-01-18T04:16:37.098Z,7.8
2023-01-18T04:21:39.199Z,7.8
2023-01-18T04:26:41.831Z,7.8
2023-01-18T04:31:44.549Z,7.7
2023-01-18T04:36:46.623Z,7.7
2023-01-18T04:41:49.350Z,7.6
2023-01-18T04:46:52.539Z,7.5
2023-01-18T04:51:54.809Z,7.5
2023-01-18T04:56:57.035Z,7.4
2023-01-18T05:01:59.336Z,7.4
2023-01-18T05:07:01.642Z,7.4
2023-01-18T05:12:03.614Z,7.5
2023-01-18T05:17:05.735Z,7.6
2023-01-18T05:22:07.834Z,7.7
2023-01-18T05:27:09.882Z,7.7
2023-01-18T05:32:11.919Z,7.8
2023-01-18T05:37:14.226Z,7.8
2023-01-18T05:42:16.404Z,7.8
2023-01-18T05:47:18.778Z,7.8
2023-01-18T05:52:21.413Z,7.8
2023-01-18T05:57:23.717Z,7.8
2023-01-18T06:02:27.086Z,7.5
2023-01-18T06:07:29.459Z,7.5
2023-01-18T06:12:31.597Z,6.7
2023-01-18T06:17:33.726Z,6.1
2023-01-18T06:22:43.189Z,5.4
2023-01-18T06:27:45.452Z,5.4
2023-01-18T06:32:47.681Z,5.2
2023-01-18T06:37:49.911Z,5.1
2023-01-18T06:42:52.132Z,5.1
2023-01-18T06:47:54.395Z,5
2023-01-18T06:52:57.681Z,5.2
2023-01-18T06:58:00.669Z,5.2
2023-01-18T07:03:03.118Z,5.2
2023-01-18T07:08:05.249Z,5.2
2023-01-18T07:13:07.487Z,5.3
2023-01-18T07:18:16.842Z,5.3
2023-01-18T07:23:11.927Z,5.3
2023-01-18T07:28:14.205Z,5.1
2023-01-18T07:33:16.288Z,5.1
2023-01-18T07:38:18.590Z,5.1
2023-01-18T07:43:20.837Z,5.1
2023-01-18T07:48:23.251Z,5.2
2023-01-18T07:53:25.913Z,5.1
2023-01-18T07:58:28.217Z,5.1
2023-01-18T08:03:30.549Z,5.1
2023-01-18T08:08:35.650Z,5.2
2023-01-18T08:13:37.937Z,5.2
2023-01-18T08:18:40.294Z,5.2
2023-01-18T08:28:43.273Z,5.3
2023-01-18T08:33:46.523Z,5.2
2023-01-18T08:38:48.810Z,5.5
2023-01-18T08:43:51.523Z,6
2023-01-18T08:48:53.632Z,6
2023-01-18T08:53:55.675Z,6.2
2023-01-18T08:58:58.521Z,7.2
2023-01-18T09:04:01.299Z,6.9
2023-01-18T09:09:06.472Z,6.8
2023-01-18T09:14:11.982Z,7.9
2023-01-18T09:19:14.263Z,7.9
2023-01-18T09:24:17.411Z,6.7
2023-01-18T09:29:19.636Z,6.7
2023-01-18T09:34:22.411Z,6.4
2023-01-18T09:39:24.986Z,6.5
2023-01-18T09:44:27.223Z,6.5
2023-01-18T09:49:29.597Z,6.6
2023-01-18T09:54:31.644Z,6.6
2023-01-18T09:59:33.723Z,6.5
2023-01-18T10:04:37.956Z,6.4
2023-01-18T10:09:40.099Z,6.4
2023-01-18T10:14:42.627Z,6.6
2023-01-18T10:19:44.807Z,7.3
2023-01-18T10:24:46.906Z,7.9
2023-01-18T10:29:50.062Z,7.5
2023-01-18T10:34:52.221Z,7.4
2023-01-18T10:39:54.343Z,7.3
2023-01-18T10:44:56.428Z,7.2
2023-01-18T10:49:59.160Z,7.5
2023-01-18T10:55:01.343Z,7.4
2023-01-18T11:00:03.502Z,7.6
2023-01-18T11:05:05.635Z,7.7
2023-01-18T11:10:07.692Z,7.6
2023-01-18T11:15:09.871Z,7.7
2023-01-18T11:20:11.837Z,10.1
2023-01-18T11:25:13.903Z,14.6
2023-01-18T11:30:16.150Z,17.4
2023-01-18T11:35:18.151Z,18.2
2023-01-18T11:40:20.333Z,14.9
2023-01-18T11:45:24.488Z,11.3
2023-01-18T11:50:26.680Z,11.2
2023-01-18T12:00:29.824Z,14.2
2023-01-18T12:05:31.871Z,16.8
2023-01-18T12:10:33.890Z,16.8
2023-01-18T12:15:35.885Z,14.5
2023-01-18T12:20:37.843Z,15.2
2023-01-18T12:25:39.760Z,12.4
2023-01-18T12:30:41.838Z,10.9
2023-01-18T12:35:47.643Z,12.2
2023-01-18T12:40:51.649Z,12.2
2023-01-18T12:45:53.923Z,14.3
2023-01-18T12:50:56.144Z,14.7
2023-01-18T12:55:58.209Z,15.7
2023-01-18T13:01:00.823Z,17.2
2023-01-18T13:06:03.373Z,17.2
2023-01-18T13:11:09.195Z,16.9
2023-01-18T13:16:11.388Z,16.8
2023-01-18T13:21:14.793Z,16
2023-01-18T13:26:17.172Z,15.9
2023-01-18T13:31:19.688Z,15.8
2023-01-18T13:36:24.248Z,13.7
2023-01-18T13:41:27.479Z,14.6
2023-01-18T13:46:29.876Z,14.6
2023-01-18T13:51:32.225Z,14.6
2023-01-18T13:56:34.237Z,13.5
2023-01-18T14:01:37.085Z,11.9
2023-01-18T14:06:39.784Z,11.8
2023-01-18T14:11:41.903Z,11.3
2023-01-18T14:16:43.931Z,11
2023-01-18T14:21:45.879Z,10.8
2023-01-18T14:26:48.764Z,10.2
2023-01-18T14:31:50.737Z,10.2
2023-01-18T14:36:52.940Z,10
2023-01-18T14:41:55.238Z,9.7
2023-01-18T14:46:57.754Z,9.1
2023-01-18T14:52:00.126Z,9
2023-01-18T14:57:02.713Z,8.7
2023-01-18T15:02:05.314Z,8.5
2023-01-18T15:07:08.206Z,8.3
2023-01-18T15:12:10.297Z,8.3
2023-01-18T15:17:12.529Z,8.2
2023-01-18T15:22:14.571Z,8
2023-01-18T15:27:17.348Z,7.8
2023-01-18T15:32:19.404Z,7.8
2023-01-18T15:37:21.967Z,7.8
2023-01-18T15:42:24.101Z,7.9
2023-01-18T15:47:26.494Z,7.9
2023-01-18T15:52:28.846Z,7.9
2023-01-18T15:57:31.109Z,7.8
2023-01-18T16:02:33.862Z,7.5
2023-01-18T16:07:36.161Z,7.5
2023-01-18T16:12:38.315Z,7.4
2023-01-18T16:17:43.135Z,7.3
2023-01-18T16:22:45.234Z,7.3
2023-01-18T16:27:49.967Z,7.3
2023-01-18T16:32:52.043Z,7.4
2023-01-18T16:37:54.025Z,7.4
2023-01-18T16:42:56.026Z,7.3
2023-01-18T16:47:59.327Z,7.2
2023-01-18T16:53:02.368Z,7.2
2023-01-18T16:58:04.414Z,7.2
2023-01-18T17:03:06.847Z,7.2
2023-01-18T17:08:09.137Z,7.2
2023-01-18T17:13:11.941Z,7.1
2023-01-18T17:18:14.083Z,7.1
2023-01-18T17:23:16.327Z,7.1
2023-01-18T17:28:18.480Z,7.1
2023-01-18T17:33:20.586Z,7.1
2023-01-18T17:43:36.020Z,7.1
2023-01-18T17:48:28.115Z,7.1
2023-01-18T17:53:30.441Z,7.1
2023-01-18T17:58:32.490Z,7.1
2023-01-18T18:03:34.685Z,7.1
2023-01-18T18:08:36.997Z,7.1
2023-01-18T18:13:39.126Z,7.1
2023-01-18T18:18:41.836Z,7
2023-01-18T18:23:44.266Z,7
2023-01-18T18:28:46.570Z,7.1
2023-01-18T18:33:48.678Z,7.1
2023-01-18T18:38:50.800Z,7.1
2023-01-18T18:43:53.190Z,7.1
2023-01-18T18:48:55.407Z,7.1
2023-01-18T18:53:57.709Z,7.1
2023-01-18T18:59:00.048Z,7.1
2023-01-18T19:04:02.404Z,7
2023-01-18T19:09:12.044Z,7.1
2023-01-18T19:14:15.752Z,7
2023-01-18T19:24:21.439Z,7
2023-01-18T19:29:26.449Z,6.9
2023-01-18T19:34:29.749Z,7.4
2023-01-18T19:39:32.746Z,7.1
2023-01-18T19:44:53.934Z,7
2023-01-18T19:49:41.437Z,6.9
2023-01-18T19:54:47.370Z,6.9
2023-01-18T20:00:25.478Z,6.8
2023-01-18T20:04:50.969Z,6.8
2023-01-18T20:09:53.131Z,6.8
2023-01-18T20:14:55.383Z,6.7
2023-01-18T20:19:57.522Z,6.7
2023-01-18T20:24:59.682Z,6.6
2023-01-18T20:30:01.831Z,6.5
2023-01-18T20:35:04.019Z,6.5
2023-01-18T20:40:09.157Z,6.6
2023-01-18T20:45:12.125Z,6.5
2023-01-18T20:50:14.404Z,6.5
2023-01-18T20:55:16.716Z,6.4
2023-01-18T21:00:21.348Z,6.3
2023-01-18T21:05:23.667Z,6.3
2023-01-18T21:10:25.822Z,6.3
2023-01-18T21:15:28.351Z,6.2
2023-01-18T21:20:30.474Z,6.2
2023-01-18T21:25:32.573Z,6.1
2023-01-18T21:30:34.976Z,6.1
2023-01-18T21:35:37.039Z,6.1
2023-01-18T21:40:39.145Z,6.1
2023-01-18T21:45:41.754Z,6.1
2023-01-18T21:50:44.134Z,6.1
2023-01-18T21:55:46.578Z,6.1
2023-01-18T22:00:49.328Z,6.1
2023-01-18T22:05:52.157Z,6.1
2023-01-18T22:10:54.278Z,6.1
2023-01-18T22:15:57.647Z,6.2
2023-01-18T22:21:00.427Z,6.1
2023-01-18T22:26:03.225Z,6.1
2023-01-18T22:31:05.925Z,6.2
2023-01-18T22:36:11.049Z,6.2
2023-01-18T22:41:13.669Z,6.2
2023-01-18T22:46:16.320Z,6.2
2023-01-18T22:51:19.223Z,6.2
2023-01-18T22:56:21.955Z,6.2
2023-01-18T23:01:25.813Z,6.3
2023-01-18T23:06:28.302Z,6.3
2023-01-18T23:11:30.875Z,6.3
2023-01-18T23:16:32.899Z,6.3
2023-01-18T23:21:34.970Z,6.3
2023-01-18T23:26:37.160Z,6.2
2023-01-18T23:31:39.345Z,6.1
2023-01-18T23:36:41.431Z,6.1
2023-01-18T23:41:43.382Z,6.1
2023-01-18T23:46:45.572Z,6.1
2023-01-18T23:51:47.840Z,6
2023-01-18T23:56:50.023Z,5.9
